createdAt,value
2019-05-01T00:01:38.738Z,19.47
2019-05-01T00:04:33.328Z,20.53
2019-05-01T00:07:12.563Z,21.00
2019-05-01T00:09:44.681Z,22.80
2019-05-01T00:12:20.656Z,21.90
2019-05-01T00:14:55.718Z,22.33
2019-05-01T00:17:37.409Z,25.73
2019-05-01T00:20:09.678Z,21.07
2019-05-01T00:22:44.934Z,22.63
2019-05-01T00:25:24.150Z,24.43
2019-05-01T00:27:59.750Z,25.07
2019-05-01T00:30:33.402Z,25.10
2019-05-01T00:33:11.914Z,23.27
2019-05-01T00:35:46.130Z,22.97
2019-05-01T00:41:14.734Z,21.33
2019-05-01T00:43:59.688Z,22.07
2019-05-01T00:46:37.994Z,22.20
2019-05-01T00:49:11.306Z,23.23
2019-05-01T00:51:43.834Z,22.23
2019-05-01T00:54:16.856Z,25.47
2019-05-01T00:57:08.890Z,24.40
2019-05-01T01:00:00.410Z,23.40
2019-05-01T01:02:53.366Z,21.13
2019-05-01T01:05:24.302Z,22.73
2019-05-01T01:08:15.110Z,23.57
2019-05-01T01:10:52.698Z,23.70
2019-05-01T01:13:32.972Z,24.37
2019-05-01T01:16:26.086Z,23.57
2019-05-01T01:19:02.258Z,24.33
2019-05-01T01:21:39.882Z,23.03
2019-05-01T01:24:09.848Z,25.53
2019-05-01T01:27:18.818Z,24.57
2019-05-01T01:29:48.904Z,23.80
2019-05-01T01:32:24.074Z,24.50
2019-05-01T01:35:02.768Z,24.33
2019-05-01T01:37:38.452Z,25.87
2019-05-01T01:40:26.082Z,24.90
2019-05-01T01:42:54.614Z,23.97
2019-05-01T01:45:53.352Z,24.80
2019-05-01T01:48:26.842Z,24.03
2019-05-01T01:51:04.875Z,23.73
2019-05-01T01:53:42.451Z,24.17
2019-05-01T01:56:11.840Z,25.07
2019-05-01T01:58:53.226Z,23.30
2019-05-01T02:01:43.832Z,23.57
2019-05-01T02:04:39.953Z,23.17
2019-05-01T02:07:14.168Z,23.67
2019-05-01T02:09:51.572Z,25.07
2019-05-01T02:12:21.060Z,22.90
2019-05-01T02:14:50.056Z,23.67
2019-05-01T02:17:31.022Z,26.67
2019-05-01T02:20:03.564Z,24.70
2019-05-01T02:22:36.028Z,25.43
2019-05-01T02:25:15.996Z,25.87
2019-05-01T02:27:53.532Z,27.13
2019-05-01T02:30:24.267Z,26.07
2019-05-01T02:32:56.846Z,26.03
2019-05-01T02:35:33.158Z,30.93
2019-05-01T02:38:21.950Z,26.03
2019-05-01T02:41:01.885Z,26.27
2019-05-01T02:43:42.581Z,26.10
2019-05-01T02:46:19.013Z,26.10
2019-05-01T02:48:52.825Z,25.53
2019-05-01T02:51:27.682Z,25.73
2019-05-01T02:54:03.433Z,23.60
2019-05-01T02:56:47.883Z,26.13
2019-05-01T02:59:26.199Z,27.23
2019-05-01T03:02:00.821Z,25.07
2019-05-01T03:04:31.305Z,24.80
2019-05-01T03:07:13.408Z,24.40
2019-05-01T03:09:48.782Z,23.33
2019-05-01T03:12:19.275Z,23.33
2019-05-01T03:14:49.645Z,24.03
2019-05-01T03:17:56.684Z,23.10
2019-05-01T03:20:45.849Z,25.10
2019-05-01T03:23:21.953Z,26.43
2019-05-01T03:25:51.881Z,27.50
2019-05-01T03:28:21.730Z,26.33
2019-05-01T03:30:52.120Z,26.10
2019-05-01T03:33:25.505Z,26.60
2019-05-01T03:36:06.015Z,24.00
2019-05-01T03:38:56.108Z,26.13
2019-05-01T03:41:25.760Z,23.33
2019-05-01T03:43:58.736Z,24.50
2019-05-01T03:46:28.715Z,21.17
2019-05-01T03:49:08.970Z,21.27
2019-05-01T03:51:41.342Z,21.23
2019-05-01T03:54:13.251Z,23.70
2019-05-01T03:56:46.140Z,23.93
2019-05-01T03:59:32.433Z,26.57
2019-05-01T04:02:33.099Z,27.77
2019-05-01T04:04:57.730Z,24.57
2019-05-01T04:07:30.747Z,24.20
2019-05-01T04:10:02.796Z,25.57
2019-05-01T04:12:35.799Z,23.33
2019-05-01T04:15:22.912Z,24.93
2019-05-01T04:17:55.376Z,22.73
2019-05-01T04:20:27.749Z,26.00
2019-05-01T04:22:57.372Z,24.20
2019-05-01T04:25:29.579Z,22.40
2019-05-01T04:28:20.906Z,21.40
2019-05-01T04:31:03.360Z,23.77
2019-05-01T04:34:09.923Z,20.80
2019-05-01T04:36:44.253Z,21.23
2019-05-01T04:39:19.802Z,21.63
2019-05-01T04:41:50.009Z,21.97
2019-05-01T04:44:20.456Z,19.67
2019-05-01T04:46:58.146Z,20.23
2019-05-01T04:49:31.641Z,21.47
2019-05-01T04:52:09.427Z,19.10
2019-05-01T04:54:39.761Z,20.53
2019-05-01T04:57:09.320Z,18.20
2019-05-01T04:59:38.361Z,18.73
2019-05-01T05:02:09.679Z,17.80
2019-05-01T05:04:38.555Z,19.03
2019-05-01T05:07:13.790Z,18.30
2019-05-01T05:09:52.034Z,19.07
2019-05-01T05:12:49.097Z,20.23
2019-05-01T05:15:52.652Z,18.90
2019-05-01T05:18:31.424Z,18.53
2019-05-01T05:21:01.132Z,19.57
2019-05-01T05:23:31.627Z,17.83
2019-05-01T05:26:04.954Z,16.87
2019-05-01T05:28:46.224Z,19.10
2019-05-01T05:31:17.172Z,20.10
2019-05-01T05:33:52.146Z,18.70
2019-05-01T05:36:29.138Z,17.00
2019-05-01T05:39:12.196Z,17.30
2019-05-01T05:41:46.527Z,17.10
2019-05-01T05:44:22.376Z,18.10
2019-05-01T05:46:58.532Z,16.10
2019-05-01T06:25:45.075Z,14.43
2019-05-01T06:28:29.693Z,14.50
2019-05-01T06:31:22.906Z,13.60
2019-05-01T06:33:58.238Z,15.03
2019-05-01T06:39:36.061Z,14.55
2019-05-01T06:42:16.931Z,13.83
2019-05-01T06:44:52.277Z,15.18
2019-05-01T06:47:32.220Z,15.53
2019-05-01T06:50:21.080Z,13.93
2019-05-01T06:52:59.821Z,15.25
2019-05-01T06:58:51.066Z,14.30
2019-05-01T07:01:41.415Z,15.32
2019-05-01T07:04:18.058Z,14.05
2019-05-01T07:06:56.618Z,12.25
2019-05-01T07:09:31.650Z,15.10
2019-05-01T07:12:05.138Z,15.38
2019-05-01T07:14:38.433Z,15.25
2019-05-01T07:17:14.859Z,15.90
2019-05-01T07:20:11.865Z,15.25
2019-05-01T07:22:49.656Z,16.40
2019-05-01T07:25:20.903Z,15.43
2019-05-01T07:27:58.593Z,16.97
2019-05-01T07:31:05.263Z,17.37
2019-05-01T07:33:37.546Z,16.40
2019-05-01T07:36:25.586Z,16.33
2019-05-01T07:38:59.087Z,15.53
2019-05-01T07:41:33.959Z,16.47
2019-05-01T07:44:35.476Z,15.17
2019-05-01T07:47:33.031Z,15.97
2019-05-01T07:50:29.869Z,18.07
2019-05-01T07:52:58.813Z,16.53
2019-05-01T07:55:38.005Z,15.07
2019-05-01T07:58:16.123Z,15.40
2019-05-01T08:01:18.431Z,17.30
2019-05-01T08:03:48.691Z,16.93
2019-05-01T08:06:23.634Z,16.23
2019-05-01T08:09:15.212Z,16.13
2019-05-01T08:12:01.445Z,16.33
2019-05-01T08:14:31.548Z,15.53
2019-05-01T08:17:07.072Z,15.80
2019-05-01T08:19:59.100Z,16.50
2019-05-01T08:22:37.279Z,17.63
2019-05-01T08:25:13.932Z,15.97
2019-05-01T08:27:56.365Z,15.10
2019-05-01T08:30:52.744Z,17.40
2019-05-01T08:33:37.917Z,16.03
2019-05-01T08:36:11.752Z,15.90
2019-05-01T08:38:39.358Z,17.20
2019-05-01T08:41:31.901Z,15.57
2019-05-01T08:44:03.506Z,17.80
2019-05-01T08:47:02.914Z,16.40
2019-05-01T08:52:57.722Z,16.33
2019-05-01T08:55:29.593Z,16.30
2019-05-01T08:57:58.741Z,15.43
2019-05-01T09:00:30.914Z,16.73
2019-05-01T09:03:08.889Z,16.50
2019-05-01T09:05:41.422Z,17.10
2019-05-01T09:08:15.241Z,16.27
2019-05-01T09:10:49.576Z,17.37
2019-05-01T09:13:24.835Z,17.33
2019-05-01T09:15:57.539Z,16.67
2019-05-01T09:18:29.795Z,17.23
2019-05-01T09:20:59.251Z,16.77
2019-05-01T09:23:28.538Z,17.43
2019-05-01T09:26:21.808Z,17.30
2019-05-01T09:28:57.722Z,17.17
2019-05-01T09:31:33.992Z,17.23
2019-05-01T09:34:02.688Z,16.73
2019-05-01T09:36:42.546Z,16.93
2019-05-01T09:39:16.259Z,16.73
2019-05-01T09:41:49.248Z,17.00
2019-05-01T09:44:20.146Z,16.80
2019-05-01T09:46:57.737Z,15.63
2019-05-01T09:49:31.282Z,16.00
2019-05-01T09:52:24.875Z,14.70
2019-05-01T09:55:25.441Z,15.73
2019-05-01T09:57:57.610Z,14.63
2019-05-01T10:00:29.828Z,14.87
2019-05-01T10:03:01.950Z,15.40
2019-05-01T10:05:38.132Z,14.97
2019-05-01T10:08:11.082Z,15.10
2019-05-01T10:10:51.288Z,15.30
2019-05-01T10:13:33.596Z,14.20
2019-05-01T10:16:05.520Z,14.33
2019-05-01T10:18:39.056Z,13.93
2019-05-01T10:21:13.066Z,14.70
2019-05-01T10:23:51.723Z,14.73
2019-05-01T10:26:24.073Z,14.23
2019-05-01T10:29:21.484Z,13.43
2019-05-01T10:31:58.904Z,13.87
2019-05-01T10:34:42.931Z,14.67
2019-05-01T10:37:16.394Z,13.67
2019-05-01T10:39:50.277Z,15.97
2019-05-01T10:42:21.381Z,13.33
2019-05-01T10:44:53.254Z,13.10
2019-05-01T10:47:25.387Z,12.17
2019-05-01T10:49:57.376Z,13.23
2019-05-01T10:52:36.053Z,12.83
2019-05-01T10:55:08.784Z,11.93
2019-05-01T10:57:44.385Z,11.50
2019-05-01T11:00:13.941Z,12.20
2019-05-01T11:02:47.680Z,12.53
2019-05-01T11:05:29.119Z,13.17
2019-05-01T11:08:04.365Z,13.13
2019-05-01T11:10:35.612Z,10.57
2019-05-01T11:13:11.067Z,11.50
2019-05-01T11:15:46.184Z,11.57
2019-05-01T11:18:18.055Z,12.97
2019-05-01T11:20:50.924Z,12.93
2019-05-01T11:23:24.228Z,12.43
2019-05-01T11:25:59.218Z,10.27
2019-05-01T11:28:32.044Z,11.00
2019-05-01T11:31:04.624Z,12.97
2019-05-01T11:34:19.887Z,12.57
2019-05-01T11:37:17.361Z,10.63
2019-05-01T11:40:00.383Z,12.27
2019-05-01T11:42:29.640Z,11.57
2019-05-01T11:44:58.935Z,10.80
2019-05-01T11:47:28.121Z,10.57
2019-05-01T11:49:57.218Z,11.53
2019-05-01T11:52:26.071Z,9.73
2019-05-01T11:54:55.159Z,9.97
2019-05-01T11:57:30.183Z,10.80
2019-05-01T11:59:59.404Z,10.43
2019-05-01T12:02:28.343Z,12.37
2019-05-01T12:04:57.537Z,10.67
2019-05-01T12:07:29.440Z,9.57
2019-05-01T12:09:58.416Z,10.20
2019-05-01T12:12:29.244Z,10.00
2019-05-01T12:14:58.367Z,10.13
2019-05-01T12:17:32.485Z,9.40
2019-05-01T12:20:01.371Z,10.07
2019-05-01T12:22:30.209Z,9.47
2019-05-01T12:24:59.506Z,9.80
2019-05-01T12:27:28.525Z,11.50
2019-05-01T12:29:57.807Z,9.37
2019-05-01T12:32:26.813Z,9.00
2019-05-01T12:34:55.843Z,8.20
2019-05-01T12:37:33.637Z,9.70
2019-05-01T12:40:03.031Z,11.50
2019-05-01T12:42:32.483Z,9.00
2019-05-01T12:45:01.295Z,9.30
2019-05-01T12:47:38.142Z,8.90
2019-05-01T12:50:07.425Z,8.90
2019-05-01T12:52:53.092Z,7.83
2019-05-01T12:55:30.501Z,7.40
2019-05-01T12:57:59.243Z,8.40
2019-05-01T13:00:41.445Z,8.40
2019-05-01T13:03:10.365Z,9.90
2019-05-01T13:05:39.407Z,9.03
2019-05-01T13:08:08.085Z,9.47
2019-05-01T13:10:36.906Z,9.27
2019-05-01T13:13:11.153Z,8.97
2019-05-01T13:15:39.885Z,7.20
2019-05-01T13:18:16.564Z,8.80
2019-05-01T13:20:47.188Z,8.07
2019-05-01T13:23:16.025Z,9.10
2019-05-01T13:25:45.095Z,8.70
2019-05-01T13:28:31.571Z,8.27
2019-05-01T13:31:13.881Z,8.00
2019-05-01T13:33:42.751Z,8.03
2019-05-01T13:36:11.551Z,8.57
2019-05-01T13:38:40.275Z,8.73
2019-05-01T13:41:09.080Z,7.83
2019-05-01T13:43:37.728Z,9.00
2019-05-01T13:46:06.360Z,7.60
2019-05-01T13:48:38.199Z,9.00
2019-05-01T13:51:06.933Z,8.37
2019-05-01T13:53:35.664Z,8.93
2019-05-01T13:56:04.712Z,7.70
2019-05-01T13:58:33.462Z,8.93
2019-05-01T14:01:02.230Z,8.70
2019-05-01T14:03:30.922Z,6.87
2019-05-01T14:05:59.828Z,8.97
2019-05-01T14:08:28.497Z,7.10
2019-05-01T14:11:00.668Z,7.57
2019-05-01T14:13:29.674Z,7.80
2019-05-01T14:15:58.645Z,7.93
2019-05-01T14:18:27.480Z,8.57
2019-05-01T14:21:21.043Z,7.57
2019-05-01T14:24:07.537Z,8.70
2019-05-01T14:26:36.391Z,6.70
2019-05-01T14:29:05.154Z,7.63
2019-05-01T14:31:34.057Z,7.83
2019-05-01T14:34:03.045Z,8.67
2019-05-01T14:36:35.349Z,7.07
2019-05-01T14:39:06.520Z,8.53
2019-05-01T14:41:36.719Z,6.43
2019-05-01T14:44:05.884Z,6.80
2019-05-01T14:46:35.135Z,6.97
2019-05-01T14:49:04.410Z,6.10
2019-05-01T14:51:33.531Z,7.13
2019-05-01T14:54:02.255Z,6.93
2019-05-01T14:56:30.907Z,7.10
2019-05-01T14:58:59.569Z,6.27
2019-05-01T15:01:28.505Z,5.60
2019-05-01T15:03:57.152Z,6.70
2019-05-01T15:06:26.123Z,5.40
2019-05-01T15:08:55.734Z,7.10
2019-05-01T15:11:24.575Z,4.87
2019-05-01T15:14:10.407Z,5.00
2019-05-01T15:16:58.867Z,5.33
2019-05-01T15:19:30.414Z,5.50
2019-05-01T15:21:59.525Z,5.73
2019-05-01T15:24:28.811Z,5.00
2019-05-01T15:26:57.883Z,6.30
2019-05-01T15:29:27.168Z,5.73
2019-05-01T15:31:56.209Z,6.10
2019-05-01T15:34:25.393Z,4.80
2019-05-01T15:36:54.999Z,6.47
2019-05-01T15:39:41.413Z,8.17
2019-05-01T15:42:29.304Z,6.00
2019-05-01T15:44:58.646Z,6.63
2019-05-01T15:47:27.830Z,6.67
2019-05-01T15:49:57.217Z,6.40
2019-05-01T15:52:26.442Z,4.90
2019-05-01T15:54:55.544Z,4.67
2019-05-01T15:57:24.518Z,5.23
2019-05-01T15:59:53.581Z,6.30
2019-05-01T16:02:22.898Z,6.00
2019-05-01T16:04:51.688Z,6.43
2019-05-01T16:07:20.488Z,4.80
2019-05-01T16:09:49.236Z,5.87
2019-05-01T16:12:29.122Z,5.93
2019-05-01T16:14:58.028Z,4.77
2019-05-01T16:17:27.226Z,5.33
2019-05-01T16:19:56.304Z,4.90
2019-05-01T16:22:25.260Z,5.00
2019-05-01T16:24:54.159Z,5.50
2019-05-01T16:27:23.040Z,4.43
2019-05-01T16:29:51.729Z,4.93
2019-05-01T16:32:20.550Z,4.33
2019-05-01T16:34:49.455Z,5.87
2019-05-01T16:37:18.230Z,4.77
2019-05-01T16:40:18.346Z,5.10
2019-05-01T16:42:47.188Z,4.93
2019-05-01T16:45:16.023Z,4.10
2019-05-01T16:47:45.323Z,4.30
2019-05-01T16:50:14.299Z,3.90
2019-05-01T16:52:43.526Z,5.27
2019-05-01T16:55:12.790Z,5.20
2019-05-01T16:57:41.830Z,4.57
2019-05-01T17:00:11.511Z,4.00
2019-05-01T17:03:08.484Z,4.47
2019-05-01T17:06:02.128Z,4.57
2019-05-01T17:08:49.849Z,4.77
2019-05-01T17:11:21.084Z,3.33
2019-05-01T17:13:49.997Z,4.23
2019-05-01T17:16:18.837Z,3.50
2019-05-01T17:18:47.707Z,5.50
2019-05-01T17:21:16.563Z,5.37
2019-05-01T17:23:45.431Z,5.17
2019-05-01T17:26:14.386Z,4.73
2019-05-01T17:28:43.230Z,4.17
2019-05-01T17:31:12.139Z,5.10
2019-05-01T17:33:41.152Z,3.10
2019-05-01T17:36:09.984Z,3.60
2019-05-01T17:38:49.054Z,4.67
2019-05-01T17:41:09.510Z,4.07
2019-05-01T17:43:38.399Z,3.50
2019-05-01T17:46:10.748Z,5.43
2019-05-01T17:48:38.115Z,3.87
2019-05-01T17:51:06.860Z,4.37
2019-05-01T17:53:35.887Z,3.53
2019-05-01T17:56:05.208Z,3.57
2019-05-01T17:58:33.996Z,3.50
2019-05-01T18:01:27.588Z,4.63
2019-05-01T18:04:23.691Z,5.40
2019-05-01T18:06:52.923Z,3.40
2019-05-01T18:09:22.073Z,3.70
2019-05-01T18:11:52.121Z,3.97
2019-05-01T18:14:21.614Z,4.93
2019-05-01T18:16:50.798Z,4.80
2019-05-01T18:19:20.157Z,3.30
2019-05-01T18:21:56.765Z,4.60
2019-05-01T18:25:04.210Z,7.50
2019-05-01T18:27:54.448Z,3.97
2019-05-01T18:30:22.995Z,5.37
2019-05-01T18:32:52.544Z,4.27
2019-05-01T18:35:21.990Z,4.33
2019-05-01T18:37:59.745Z,4.27
2019-05-01T18:40:36.086Z,3.93
2019-05-01T18:43:05.817Z,3.87
2019-05-01T18:45:46.892Z,4.93
2019-05-01T18:48:16.152Z,4.40
2019-05-01T18:50:49.372Z,3.87
2019-05-01T18:53:15.828Z,4.17
2019-05-01T18:55:44.764Z,4.77
2019-05-01T18:58:13.805Z,5.47
2019-05-01T19:00:43.317Z,5.70
2019-05-01T19:03:12.392Z,6.27
2019-05-01T19:05:43.256Z,5.13
2019-05-01T19:08:12.546Z,4.53
2019-05-01T19:10:45.020Z,5.60
2019-05-01T19:13:14.417Z,4.70
2019-05-01T19:15:43.264Z,4.33
2019-05-01T19:18:12.361Z,7.00
2019-05-01T19:20:41.163Z,6.20
2019-05-01T19:23:09.902Z,5.27
2019-05-01T19:25:39.082Z,5.17
2019-05-01T19:28:09.438Z,5.90
2019-05-01T19:30:38.639Z,4.67
2019-05-01T19:33:07.672Z,5.93
2019-05-01T19:35:36.565Z,4.70
2019-05-01T19:38:05.784Z,4.83
2019-05-01T19:40:34.877Z,4.67
2019-05-01T19:43:03.873Z,4.67
2019-05-01T19:45:32.915Z,5.27
2019-05-01T19:48:02.519Z,4.67
2019-05-01T19:50:31.598Z,4.27
2019-05-01T19:53:00.595Z,4.40
2019-05-01T19:55:29.587Z,5.30
2019-05-01T19:57:59.931Z,5.57
2019-05-01T20:00:46.786Z,5.80
2019-05-01T20:03:16.183Z,5.27
2019-05-01T20:05:45.667Z,4.97
2019-05-01T20:08:14.753Z,5.30
2019-05-01T20:10:43.730Z,5.13
2019-05-01T20:13:13.288Z,5.93
2019-05-01T20:15:42.368Z,5.80
2019-05-01T20:18:11.322Z,6.60
2019-05-01T20:20:40.467Z,5.23
2019-05-01T20:23:09.729Z,5.07
2019-05-01T20:25:38.555Z,6.30
2019-05-01T20:28:07.502Z,5.27
2019-05-01T20:30:36.476Z,5.10
2019-05-01T20:33:08.020Z,5.50
2019-05-01T20:35:36.103Z,6.07
2019-05-01T20:38:05.060Z,6.83
2019-05-01T20:40:33.778Z,6.10
2019-05-01T20:43:05.828Z,4.87
2019-05-01T20:45:33.986Z,6.73
2019-05-01T20:48:03.319Z,4.30
2019-05-01T20:50:32.121Z,4.83
2019-05-01T20:53:01.166Z,4.97
2019-05-01T20:55:30.054Z,5.07
2019-05-01T20:58:18.450Z,5.73
2019-05-01T21:00:53.457Z,4.80
2019-05-01T21:03:20.976Z,5.73
2019-05-01T21:06:09.393Z,4.57
2019-05-01T21:08:48.468Z,5.60
2019-05-01T21:11:21.808Z,6.20
2019-05-01T21:13:56.622Z,6.87
2019-05-01T21:16:21.221Z,6.10
2019-05-01T21:18:50.076Z,5.93
2019-05-01T21:21:18.896Z,6.03
2019-05-01T21:23:48.058Z,8.83
2019-05-01T21:26:18.166Z,5.87
2019-05-01T21:28:47.095Z,7.10
2019-05-01T21:31:15.867Z,6.20
2019-05-01T21:33:46.255Z,6.63
2019-05-01T21:36:15.581Z,7.53
2019-05-01T21:38:44.418Z,5.97
2019-05-01T21:41:15.008Z,7.40
2019-05-01T21:43:43.786Z,7.53
2019-05-01T21:46:14.506Z,6.93
2019-05-01T21:48:45.420Z,10.07
2019-05-01T21:51:14.197Z,7.87
2019-05-01T21:53:46.403Z,7.07
2019-05-01T21:56:13.511Z,7.33
2019-05-01T21:58:42.306Z,8.00
2019-05-01T22:01:11.578Z,8.57
2019-05-01T22:03:40.439Z,7.47
2019-05-01T22:06:11.180Z,7.80
2019-05-01T22:08:41.058Z,7.73
2019-05-01T22:11:10.138Z,7.20
2019-05-01T22:13:39.024Z,7.60
2019-05-01T22:16:18.350Z,9.40
2019-05-01T22:18:56.959Z,9.80
2019-05-01T22:21:47.558Z,9.80
2019-05-01T22:24:44.134Z,8.13
2019-05-01T22:27:22.925Z,10.57
2019-05-01T22:30:13.539Z,10.33
2019-05-01T22:32:46.829Z,8.27
2019-05-01T22:35:21.045Z,9.57
2019-05-01T22:37:49.986Z,10.07
2019-05-01T22:40:22.455Z,8.80
2019-05-01T22:42:51.721Z,10.63
2019-05-01T22:45:21.855Z,9.87
2019-05-01T22:47:52.142Z,8.40
2019-05-01T22:50:21.302Z,8.20
2019-05-01T22:52:50.306Z,9.10
2019-05-01T22:55:20.373Z,8.57
2019-05-01T22:57:49.794Z,9.63
2019-05-01T23:00:26.997Z,9.30
2019-05-01T23:02:59.989Z,9.30
2019-05-01T23:05:27.903Z,12.03
2019-05-01T23:07:57.675Z,9.47
2019-05-01T23:10:26.564Z,9.70
2019-05-01T23:12:55.313Z,9.43
2019-05-01T23:15:25.800Z,9.67
2019-05-01T23:17:54.589Z,9.20
2019-05-01T23:20:23.802Z,9.80
2019-05-01T23:22:52.718Z,9.33
2019-05-01T23:25:21.478Z,8.87
2019-05-01T23:27:50.479Z,9.03
2019-05-01T23:30:21.307Z,8.73
2019-05-01T23:32:50.556Z,11.00
2019-05-01T23:35:19.320Z,8.73
2019-05-01T23:37:48.286Z,8.10
2019-05-01T23:40:17.228Z,8.17
2019-05-01T23:42:52.417Z,7.70
2019-05-01T23:45:17.623Z,7.97
2019-05-01T23:47:47.128Z,9.10
2019-05-01T23:50:15.964Z,7.83
2019-05-01T23:52:44.890Z,8.00
2019-05-01T23:55:13.722Z,8.63
2019-05-01T23:57:42.888Z,7.70
